createdAt,value
2018-11-07T00:02:49.364Z,99760.19
2018-11-07T00:07:46.925Z,99755.21
2018-11-07T00:12:44.311Z,99748.83
2018-11-07T00:17:42.026Z,99754.77
2018-11-07T00:22:39.772Z,99757.84
2018-11-07T00:27:37.268Z,99764.17
2018-11-07T00:32:34.703Z,99778.06
2018-11-07T00:37:32.132Z,99783.20
2018-11-07T00:42:29.630Z,99775.86
2018-11-07T00:47:27.443Z,99772.05
2018-11-07T00:52:24.879Z,99771.95
2018-11-07T00:57:22.307Z,99786.39
2018-11-07T01:02:19.908Z,99785.71
2018-11-07T01:07:17.331Z,99774.53
2018-11-07T01:12:14.763Z,99776.78
2018-11-07T01:17:12.197Z,99781.10
2018-11-07T01:22:09.693Z,99786.85
2018-11-07T01:27:07.138Z,99784.41
2018-11-07T01:32:04.703Z,99782.80
2018-11-07T01:37:02.136Z,99785.30
2018-11-07T01:41:59.657Z,99785.44
2018-11-07T01:46:58.112Z,99787.14
2018-11-07T01:51:55.553Z,99796.52
2018-11-07T01:56:53.074Z,99788.04
2018-11-07T02:01:50.520Z,99795.12
2018-11-07T02:06:47.960Z,99800.03
2018-11-07T02:11:45.423Z,99796.13
2018-11-07T02:16:44.226Z,99798.11
2018-11-07T02:21:41.667Z,99790.06
2018-11-07T02:26:39.107Z,99794.91
2018-11-07T02:31:36.568Z,99790.38
2018-11-07T02:36:34.025Z,99792.77
2018-11-07T02:41:31.466Z,99790.78
2018-11-07T02:46:30.079Z,99793.14
2018-11-07T02:51:27.517Z,99779.89
2018-11-07T02:56:24.997Z,99784.27
2018-11-07T03:01:22.477Z,99793.66
2018-11-07T03:06:19.968Z,99786.38
2018-11-07T03:11:17.401Z,99783.87
2018-11-07T03:16:17.707Z,99785.23
2018-11-07T03:21:15.302Z,99789.93
2018-11-07T03:26:12.746Z,99789.94
2018-11-07T03:31:10.165Z,99797.22
2018-11-07T03:36:07.597Z,99792.72
2018-11-07T03:41:05.149Z,99802.75
2018-11-07T03:46:08.560Z,99802.59
2018-11-07T03:51:06.062Z,99813.21
2018-11-07T03:56:03.513Z,99820.31
2018-11-07T04:01:00.972Z,99823.28
2018-11-07T04:05:58.408Z,99824.34
2018-11-07T04:10:55.872Z,99827.75
2018-11-07T04:16:02.794Z,99818.40
2018-11-07T04:21:00.287Z,99816.56
2018-11-07T04:25:57.755Z,99819.19
2018-11-07T04:30:55.193Z,99813.84
2018-11-07T04:35:52.722Z,99808.19
2018-11-07T04:40:50.228Z,99821.28
2018-11-07T04:45:48.442Z,99828.03
2018-11-07T04:50:45.936Z,99834.00
2018-11-07T04:55:43.423Z,99833.62
2018-11-07T05:00:40.845Z,99842.50
2018-11-07T05:05:38.271Z,99848.27
2018-11-07T05:10:35.696Z,99850.80
2018-11-07T05:15:33.133Z,99847.53
2018-11-07T05:20:30.568Z,99839.33
2018-11-07T05:25:28.065Z,99840.09
2018-11-07T05:30:25.497Z,99847.08
2018-11-07T05:35:22.916Z,99844.73
2018-11-07T05:40:20.365Z,99858.00
2018-11-07T05:45:17.802Z,99851.18
2018-11-07T05:50:15.266Z,99842.31
2018-11-07T05:55:12.738Z,99842.14
2018-11-07T06:00:11.375Z,99834.78
2018-11-07T06:05:09.965Z,99842.24
2018-11-07T06:10:09.684Z,99835.77
2018-11-07T06:15:08.413Z,99854.08
2018-11-07T06:20:06.713Z,99868.11
2018-11-07T06:25:04.864Z,99856.45
2018-11-07T06:30:02.505Z,99858.17
2018-11-07T06:34:59.971Z,99854.44
2018-11-07T06:39:57.509Z,99874.88
2018-11-07T06:44:54.936Z,99876.02
2018-11-07T06:49:52.370Z,99879.05
2018-11-07T06:54:49.826Z,99878.33
2018-11-07T06:59:47.305Z,99890.83
2018-11-07T07:04:44.810Z,99898.59
2018-11-07T07:09:42.334Z,99905.61
2018-11-07T07:14:40.028Z,99908.28
2018-11-07T07:19:37.485Z,99910.83
2018-11-07T07:24:34.928Z,99898.48
2018-11-07T07:29:32.383Z,99901.11
2018-11-07T07:34:29.902Z,99900.58
2018-11-07T07:39:27.341Z,99905.97
2018-11-07T07:44:24.799Z,99910.70
2018-11-07T07:49:22.287Z,99915.55
2018-11-07T07:54:19.713Z,99910.56
2018-11-07T07:59:17.265Z,99908.33
2018-11-07T08:04:14.868Z,99905.84
2018-11-07T08:09:13.514Z,99903.80
2018-11-07T08:14:11.074Z,99905.88
2018-11-07T08:19:09.245Z,99911.41
2018-11-07T08:24:06.720Z,99917.87
2018-11-07T08:29:04.296Z,99910.50
2018-11-07T08:34:01.723Z,99914.80
2018-11-07T08:38:59.176Z,99916.30
2018-11-07T08:43:56.653Z,99908.38
2018-11-07T08:48:54.163Z,99907.22
2018-11-07T08:53:51.630Z,99917.96
2018-11-07T08:58:49.140Z,99921.69
2018-11-07T09:03:46.633Z,99923.42
2018-11-07T09:08:44.169Z,99926.30
2018-11-07T09:13:41.682Z,99922.20
2018-11-07T09:18:39.168Z,99920.53
2018-11-07T09:23:36.711Z,99920.52
2018-11-07T09:28:34.186Z,99920.23
2018-11-07T09:33:31.677Z,99915.70
2018-11-07T09:38:29.122Z,99923.22
2018-11-07T09:43:26.592Z,99928.28
2018-11-07T09:48:24.148Z,99919.45
2018-11-07T09:53:21.632Z,99914.80
2018-11-07T09:58:19.101Z,99917.66
2018-11-07T10:03:16.554Z,99914.11
2018-11-07T10:08:14.022Z,99926.70
2018-11-07T10:13:11.510Z,99917.59
2018-11-07T10:18:08.966Z,99910.49
2018-11-07T10:23:06.441Z,99915.59
2018-11-07T10:28:04.488Z,99905.09
2018-11-07T10:33:01.418Z,99906.88
2018-11-07T10:37:59.045Z,99901.42
2018-11-07T10:42:56.467Z,99894.80
2018-11-07T10:47:55.217Z,99900.26
2018-11-07T10:52:54.334Z,99904.77
2018-11-07T10:57:53.920Z,99895.89
2018-11-07T11:02:57.081Z,99897.69
2018-11-07T11:07:54.692Z,99896.69
2018-11-07T11:12:52.217Z,99885.55
2018-11-07T11:17:49.712Z,99882.70
2018-11-07T11:22:47.201Z,99887.15
2018-11-07T11:27:44.755Z,99885.84
2018-11-07T11:32:42.239Z,99891.30
2018-11-07T11:37:40.143Z,99884.43
2018-11-07T11:42:37.594Z,99885.38
2018-11-07T11:47:35.111Z,99885.50
2018-11-07T11:52:32.762Z,99881.18
2018-11-07T11:57:30.317Z,99881.03
2018-11-07T12:02:27.826Z,99880.48
2018-11-07T12:07:25.329Z,99884.55
2018-11-07T12:12:22.834Z,99888.55
2018-11-07T12:17:20.415Z,99886.05
2018-11-07T12:22:17.930Z,99885.03
2018-11-07T12:27:15.424Z,99885.29
2018-11-07T12:32:13.806Z,99887.92
2018-11-07T12:37:11.281Z,99885.01
2018-11-07T12:42:12.964Z,99883.01
2018-11-07T12:47:10.513Z,99887.08
2018-11-07T12:52:08.017Z,99881.44
2018-11-07T12:57:05.576Z,99888.33
2018-11-07T13:02:03.160Z,99883.27
2018-11-07T13:07:00.718Z,99880.59
2018-11-07T13:11:58.288Z,99884.50
2018-11-07T13:17:01.076Z,99888.88
2018-11-07T13:21:58.587Z,99883.16
2018-11-07T13:26:56.098Z,99889.16
2018-11-07T13:31:53.557Z,99886.41
2018-11-07T13:36:51.163Z,99885.33
2018-11-07T13:41:48.730Z,99880.06
2018-11-07T13:46:47.208Z,99884.66
2018-11-07T13:51:44.658Z,99886.02
2018-11-07T13:56:42.188Z,99889.46
2018-11-07T14:01:39.668Z,99898.53
2018-11-07T14:06:37.196Z,99893.48
2018-11-07T14:11:34.661Z,99891.47
2018-11-07T14:16:33.228Z,99893.67
2018-11-07T14:21:30.733Z,99901.63
2018-11-07T14:26:28.273Z,99904.54
2018-11-07T14:31:25.866Z,99905.92
2018-11-07T14:36:23.479Z,99912.28
2018-11-07T14:41:20.928Z,99924.17
2018-11-07T14:46:28.037Z,99924.87
2018-11-07T14:51:25.568Z,99929.14
2018-11-07T14:56:23.027Z,99930.94
2018-11-07T15:01:20.548Z,99940.59
2018-11-07T15:06:18.081Z,99946.23
2018-11-07T15:11:15.614Z,99946.55
2018-11-07T15:16:15.444Z,99944.27
2018-11-07T15:21:12.915Z,99942.19
2018-11-07T15:26:10.339Z,99948.06
2018-11-07T15:31:07.767Z,99948.48
2018-11-07T15:36:05.288Z,99957.55
2018-11-07T15:41:02.735Z,99956.17
2018-11-07T15:46:07.312Z,99969.53
2018-11-07T15:51:11.746Z,99975.23
2018-11-07T15:56:09.410Z,99977.94
2018-11-07T16:01:06.851Z,99981.33
2018-11-07T16:06:04.327Z,99987.64
2018-11-07T16:11:01.679Z,99993.73
2018-11-07T16:16:12.453Z,100000.25
2018-11-07T16:21:09.885Z,100004.18
2018-11-07T16:26:07.277Z,100009.17
2018-11-07T16:31:05.715Z,100012.39
2018-11-07T16:36:03.091Z,100022.24
2018-11-07T16:41:00.518Z,100025.56
2018-11-07T16:46:05.827Z,100037.88
2018-11-07T16:51:03.297Z,100035.08
2018-11-07T16:56:00.669Z,100036.51
2018-11-07T17:00:58.120Z,100041.68
2018-11-07T17:05:55.479Z,100035.95
2018-11-07T17:10:52.898Z,100050.64
2018-11-07T17:15:52.337Z,100053.41
2018-11-07T17:20:49.912Z,100068.45
2018-11-07T17:25:47.275Z,100074.40
2018-11-07T17:30:44.654Z,100074.74
2018-11-07T17:35:42.055Z,100084.44
2018-11-07T17:40:39.502Z,100089.78
2018-11-07T17:45:36.928Z,100097.41
2018-11-07T17:50:34.342Z,100101.67
2018-11-07T17:55:31.742Z,100107.89
2018-11-07T18:00:32.718Z,100104.53
2018-11-07T18:05:30.190Z,100110.89
2018-11-07T18:10:27.625Z,100109.59
2018-11-07T18:15:25.094Z,100104.91
2018-11-07T18:21:25.737Z,100107.70
2018-11-07T18:26:23.357Z,100114.06
2018-11-07T18:31:20.814Z,100114.86
2018-11-07T18:36:18.191Z,100129.53
2018-11-07T18:41:15.691Z,100127.20
2018-11-07T18:46:19.562Z,100135.05
2018-11-07T18:51:17.198Z,100135.21
2018-11-07T18:56:14.573Z,100138.34
2018-11-07T19:01:12.039Z,100147.89
2018-11-07T19:06:09.395Z,100151.70
2018-11-07T19:11:06.901Z,100156.34
2018-11-07T19:16:13.153Z,100163.59
2018-11-07T19:21:10.590Z,100174.31
2018-11-07T19:26:09.279Z,100176.52
2018-11-07T19:31:09.005Z,100185.17
2018-11-07T19:36:06.491Z,100186.03
2018-11-07T19:41:04.235Z,100188.83
2018-11-07T19:46:06.780Z,100188.41
2018-11-07T19:51:04.941Z,100199.17
2018-11-07T19:56:02.354Z,100213.19
2018-11-07T20:00:59.918Z,100222.14
2018-11-07T20:05:57.310Z,100223.73
2018-11-07T20:10:55.022Z,100224.73
2018-11-07T20:15:52.482Z,100234.69
2018-11-07T20:20:49.907Z,100239.14
2018-11-07T20:25:47.269Z,100244.25
2018-11-07T20:30:44.789Z,100247.25
2018-11-07T20:35:43.752Z,100250.64
2018-11-07T20:40:41.330Z,100249.92
2018-11-07T20:45:39.096Z,100254.45
2018-11-07T20:50:36.636Z,100260.00
2018-11-07T20:55:34.032Z,100264.50
2018-11-07T21:00:31.778Z,100272.59
2018-11-07T21:05:29.200Z,100273.61
2018-11-07T21:10:26.670Z,100279.49
2018-11-07T21:15:24.160Z,100283.80
2018-11-07T21:20:22.691Z,100284.23
2018-11-07T21:25:20.223Z,100294.04
2018-11-07T21:30:19.593Z,100297.61
2018-11-07T21:35:17.277Z,100306.22
2018-11-07T21:40:15.953Z,100318.71
2018-11-07T21:45:14.247Z,100321.25
2018-11-07T21:50:13.438Z,100328.06
2018-11-07T21:55:10.862Z,100329.50
2018-11-07T22:00:14.457Z,100329.86
2018-11-07T22:05:12.901Z,100331.89
2018-11-07T22:10:11.549Z,100328.55
2018-11-07T22:15:09.623Z,100334.01
2018-11-07T22:20:09.870Z,100336.92
2018-11-07T22:25:07.636Z,100342.08
2018-11-07T22:30:08.094Z,100330.29
2018-11-07T22:35:06.547Z,100336.80
2018-11-07T22:40:04.739Z,100341.28
2018-11-07T22:45:04.845Z,100340.83
2018-11-07T22:50:06.260Z,100346.95
2018-11-07T22:55:06.387Z,100360.44
2018-11-07T23:00:14.577Z,100364.09
2018-11-07T23:05:13.260Z,100369.13
2018-11-07T23:10:11.957Z,100370.84
2018-11-07T23:15:10.865Z,100360.25
2018-11-07T23:20:12.853Z,100370.05
2018-11-07T23:25:15.053Z,100374.05
2018-11-07T23:30:15.897Z,100376.23
2018-11-07T23:35:20.418Z,100383.02
2018-11-07T23:40:24.796Z,100389.02
2018-11-07T23:45:23.256Z,100393.88
2018-11-07T23:50:26.540Z,100400.33
2018-11-07T23:55:28.081Z,100403.55
